createdAt,value
2022-08-27T00:00:17.061Z,12.69
2022-08-27T00:02:44.218Z,12.77
2022-08-27T00:05:12.567Z,12.78
2022-08-27T00:07:40.641Z,12.75
2022-08-27T00:10:10.876Z,12.70
2022-08-27T00:12:38.011Z,12.67
2022-08-27T00:15:06.929Z,12.65
2022-08-27T00:17:35.259Z,12.62
2022-08-27T00:20:02.727Z,12.59
2022-08-27T00:22:29.408Z,12.57
2022-08-27T00:24:55.991Z,12.49
2022-08-27T00:27:22.686Z,12.44
2022-08-27T00:29:49.670Z,12.38
2022-08-27T00:32:17.158Z,12.38
2022-08-27T00:34:43.854Z,12.37
2022-08-27T00:37:10.968Z,12.38
2022-08-27T00:39:37.558Z,12.43
2022-08-27T00:42:05.862Z,12.39
2022-08-27T00:44:32.696Z,12.38
2022-08-27T00:47:04.189Z,12.33
2022-08-27T00:49:46.947Z,12.30
2022-08-27T00:52:25.739Z,12.27
2022-08-27T00:54:56.954Z,12.21
2022-08-27T00:57:24.039Z,12.13
2022-08-27T00:59:50.885Z,12.12
2022-08-27T01:02:20.199Z,12.08
2022-08-27T01:05:01.433Z,11.95
2022-08-27T01:07:31.949Z,11.83
2022-08-27T01:10:01.116Z,11.71
2022-08-27T01:12:30.428Z,11.61
2022-08-27T01:14:57.444Z,11.55
2022-08-27T01:17:24.960Z,11.52
2022-08-27T01:19:56.842Z,11.41
2022-08-27T01:23:01.024Z,11.45
2022-08-27T01:25:29.215Z,11.42
2022-08-27T01:28:00.590Z,11.44
2022-08-27T01:30:27.826Z,11.41
2022-08-27T01:32:55.762Z,11.37
2022-08-27T01:35:23.640Z,11.39
2022-08-27T01:37:53.709Z,11.41
2022-08-27T01:40:24.044Z,11.43
2022-08-27T01:42:55.661Z,11.45
2022-08-27T01:45:26.191Z,11.42
2022-08-27T01:47:53.252Z,11.46
2022-08-27T01:50:24.460Z,11.44
2022-08-27T01:52:52.087Z,11.48
2022-08-27T01:55:22.712Z,11.49
2022-08-27T01:57:49.720Z,11.50
2022-08-27T02:00:23.748Z,11.48
2022-08-27T02:02:50.810Z,11.44
2022-08-27T02:05:18.303Z,11.37
2022-08-27T02:07:45.488Z,11.34
2022-08-27T02:10:17.560Z,11.28
2022-08-27T02:12:44.237Z,11.21
2022-08-27T02:15:12.246Z,11.13
2022-08-27T02:17:38.898Z,11.04
2022-08-27T02:20:09.291Z,11.03
2022-08-27T02:22:35.948Z,11.02
2022-08-27T02:25:02.664Z,11.01
2022-08-27T02:27:29.463Z,11.00
2022-08-27T02:29:56.103Z,10.99
2022-08-27T02:32:31.887Z,11.03
2022-08-27T02:34:59.404Z,11.06
2022-08-27T02:37:26.962Z,11.05
2022-08-27T02:39:54.340Z,11.03
2022-08-27T02:42:21.060Z,11.02
2022-08-27T02:44:48.038Z,11.05
2022-08-27T02:47:15.463Z,11.12
2022-08-27T02:49:42.499Z,11.12
2022-08-27T02:52:09.248Z,11.14
2022-08-27T02:54:35.837Z,11.09
2022-08-27T02:57:02.478Z,11.09
2022-08-27T02:59:29.096Z,11.07
2022-08-27T03:01:55.900Z,11.08
2022-08-27T03:04:23.849Z,11.03
2022-08-27T03:06:50.571Z,10.99
2022-08-27T03:09:17.184Z,10.91
2022-08-27T03:11:43.796Z,10.90
2022-08-27T03:14:10.397Z,10.87
2022-08-27T03:16:38.111Z,10.87
2022-08-27T03:19:07.311Z,10.84
2022-08-27T03:21:35.488Z,10.84
2022-08-27T03:24:09.440Z,10.84
2022-08-27T03:26:41.281Z,10.83
2022-08-27T03:29:08.032Z,10.81
2022-08-27T03:31:34.899Z,10.80
2022-08-27T03:34:06.766Z,10.75
2022-08-27T03:36:34.000Z,10.75
2022-08-27T03:39:00.681Z,10.74
2022-08-27T03:41:45.462Z,10.73
2022-08-27T03:44:21.449Z,10.78
2022-08-27T03:46:48.825Z,10.87
2022-08-27T03:49:15.558Z,10.90
2022-08-27T03:51:47.439Z,10.98
2022-08-27T03:54:14.087Z,10.99
2022-08-27T03:56:41.772Z,10.97
2022-08-27T03:59:08.794Z,10.99
2022-08-27T04:01:36.050Z,11.04
2022-08-27T04:04:03.111Z,11.05
2022-08-27T04:06:29.744Z,11.04
2022-08-27T04:08:56.526Z,10.98
2022-08-27T04:11:23.472Z,10.90
2022-08-27T04:13:50.238Z,10.91
2022-08-27T04:16:17.021Z,10.83
2022-08-27T04:18:43.656Z,10.76
2022-08-27T04:21:12.931Z,10.68
2022-08-27T04:23:41.144Z,10.59
2022-08-27T04:26:09.760Z,10.54
2022-08-27T04:28:38.626Z,10.53
2022-08-27T04:31:05.584Z,10.50
2022-08-27T04:33:32.569Z,10.47
2022-08-27T04:36:03.667Z,10.51
2022-08-27T04:38:30.280Z,10.54
2022-08-27T04:41:17.437Z,10.52
2022-08-27T04:43:44.001Z,10.59
2022-08-27T04:46:10.649Z,10.63
2022-08-27T04:48:38.527Z,10.66
2022-08-27T04:51:05.273Z,10.65
2022-08-27T04:53:33.436Z,10.63
2022-08-27T04:56:00.046Z,10.64
2022-08-27T04:58:26.662Z,10.63
2022-08-27T05:00:56.010Z,10.64
2022-08-27T05:03:24.380Z,10.57
2022-08-27T05:05:51.828Z,10.60
2022-08-27T05:08:18.554Z,10.63
2022-08-27T05:10:50.431Z,10.68
2022-08-27T05:13:19.122Z,10.69
2022-08-27T05:15:46.751Z,10.77
2022-08-27T05:18:14.386Z,10.84
2022-08-27T05:20:48.613Z,10.91
2022-08-27T05:23:17.719Z,11.01
2022-08-27T05:25:46.304Z,11.05
2022-08-27T05:28:14.737Z,11.23
2022-08-27T05:30:44.797Z,11.31
2022-08-27T05:33:19.511Z,11.40
2022-08-27T05:35:48.621Z,11.38
2022-08-27T05:38:16.574Z,11.38
2022-08-27T05:40:43.979Z,11.44
2022-08-27T05:43:15.415Z,11.49
2022-08-27T05:45:44.190Z,11.51
2022-08-27T05:48:13.565Z,11.57
2022-08-27T05:50:42.007Z,11.73
2022-08-27T05:53:09.928Z,11.89
2022-08-27T05:55:45.148Z,12.07
2022-08-27T05:58:33.532Z,12.30
2022-08-27T06:01:10.252Z,12.58
2022-08-27T06:03:38.407Z,12.80
2022-08-27T06:06:11.145Z,13.04
2022-08-27T06:08:38.918Z,13.22
2022-08-27T06:11:07.239Z,13.40
2022-08-27T06:13:35.353Z,13.63
2022-08-27T06:16:06.790Z,13.92
2022-08-27T06:18:35.307Z,14.20
2022-08-27T06:21:02.178Z,14.44
2022-08-27T06:23:29.686Z,14.71
2022-08-27T06:25:57.535Z,15.00
2022-08-27T06:28:29.702Z,15.30
2022-08-27T06:31:04.669Z,15.54
2022-08-27T06:33:31.551Z,15.71
2022-08-27T06:36:02.068Z,15.97
2022-08-27T06:38:29.240Z,16.26
2022-08-27T06:40:56.596Z,16.52
2022-08-27T06:43:25.190Z,16.88
2022-08-27T06:45:53.499Z,17.22
2022-08-27T06:48:20.244Z,17.50
2022-08-27T06:50:47.391Z,17.79
2022-08-27T06:53:14.534Z,18.06
2022-08-27T06:55:47.560Z,18.23
2022-08-27T06:58:15.603Z,18.52
2022-08-27T07:00:46.088Z,18.65
2022-08-27T07:03:15.461Z,18.82
2022-08-27T07:05:42.069Z,18.93
2022-08-27T07:08:10.303Z,19.02
2022-08-27T07:10:37.997Z,19.18
2022-08-27T07:13:05.151Z,19.39
2022-08-27T07:15:32.982Z,19.67
2022-08-27T07:18:01.939Z,19.76
2022-08-27T07:20:32.222Z,19.58
2022-08-27T07:23:00.939Z,19.24
2022-08-27T07:25:27.699Z,19.13
2022-08-27T07:27:54.295Z,18.90
2022-08-27T07:30:21.069Z,18.88
2022-08-27T07:32:48.763Z,18.89
2022-08-27T07:35:15.350Z,18.89
2022-08-27T07:37:42.609Z,18.94
2022-08-27T07:40:13.031Z,18.88
2022-08-27T07:43:00.647Z,18.95
2022-08-27T07:45:29.730Z,19.09
2022-08-27T07:47:56.423Z,19.28
2022-08-27T07:50:23.679Z,19.36
2022-08-27T07:52:51.441Z,19.49
2022-08-27T07:55:18.847Z,19.79
2022-08-27T07:57:45.512Z,19.81
2022-08-27T08:00:13.189Z,19.69
2022-08-27T08:02:42.197Z,19.75
2022-08-27T08:05:10.134Z,19.93
2022-08-27T08:07:38.561Z,20.11
2022-08-27T08:10:07.889Z,20.18
2022-08-27T08:12:39.468Z,20.07
2022-08-27T08:15:08.840Z,20.00
2022-08-27T08:17:35.954Z,20.02
2022-08-27T08:20:31.154Z,19.84
2022-08-27T08:22:51.573Z,20.12
2022-08-27T08:25:18.318Z,20.48
2022-08-27T08:27:45.209Z,21.01
2022-08-27T08:30:12.239Z,21.68
2022-08-27T08:32:39.296Z,22.23
2022-08-27T08:35:08.077Z,22.16
2022-08-27T08:37:35.162Z,21.78
2022-08-27T08:40:02.668Z,21.30
2022-08-27T08:42:51.376Z,20.78
2022-08-27T08:45:22.828Z,20.40
2022-08-27T08:48:04.421Z,20.15
2022-08-27T08:50:49.892Z,19.83
2022-08-27T08:53:24.273Z,19.67
2022-08-27T08:55:59.173Z,19.90
2022-08-27T08:58:47.636Z,20.63
2022-08-27T09:01:18.629Z,21.15
2022-08-27T09:03:54.771Z,21.21
2022-08-27T09:06:32.300Z,21.25
2022-08-27T09:09:08.401Z,21.20
2022-08-27T09:11:46.631Z,21.06
2022-08-27T09:14:26.878Z,20.92
2022-08-27T09:16:56.371Z,20.65
2022-08-27T09:19:24.819Z,20.47
2022-08-27T09:22:01.743Z,20.20
2022-08-27T09:24:36.088Z,20.05
2022-08-27T09:27:02.811Z,19.96
2022-08-27T09:29:29.971Z,19.87
2022-08-27T09:32:00.246Z,19.87
2022-08-27T09:34:35.198Z,19.84
2022-08-27T09:37:15.345Z,19.93
2022-08-27T09:40:22.953Z,20.12
2022-08-27T09:43:22.749Z,20.29
2022-08-27T09:45:55.439Z,20.40
2022-08-27T09:48:26.716Z,20.41
2022-08-27T09:51:27.476Z,20.52
2022-08-27T09:53:56.163Z,20.45
2022-08-27T09:56:33.331Z,20.46
2022-08-27T09:59:22.785Z,20.49
2022-08-27T10:01:51.589Z,20.33
2022-08-27T10:04:38.084Z,20.15
2022-08-27T10:07:42.028Z,20.16
2022-08-27T10:10:43.240Z,20.30
2022-08-27T10:13:21.824Z,20.34
2022-08-27T10:16:06.521Z,20.33
2022-08-27T10:18:59.016Z,20.56
2022-08-27T10:21:49.937Z,20.56
2022-08-27T10:25:05.780Z,20.59
2022-08-27T10:28:01.474Z,20.61
2022-08-27T10:30:52.641Z,20.69
2022-08-27T10:33:23.387Z,20.68
2022-08-27T10:36:04.319Z,20.90
2022-08-27T10:38:49.805Z,21.10
2022-08-27T10:41:25.290Z,21.15
2022-08-27T10:44:39.824Z,21.53
2022-08-27T10:47:09.015Z,21.56
2022-08-27T10:50:00.954Z,21.74
2022-08-27T10:52:46.065Z,21.98
2022-08-27T10:55:23.981Z,22.07
2022-08-27T10:58:35.666Z,22.16
2022-08-27T11:01:05.255Z,22.17
2022-08-27T11:03:33.261Z,22.08
2022-08-27T11:06:07.346Z,22.01
2022-08-27T11:08:49.952Z,22.18
2022-08-27T11:14:40.691Z,22.38
2022-08-27T11:17:20.597Z,22.24
2022-08-27T11:20:07.017Z,22.26
2022-08-27T11:22:42.434Z,23.32
2022-08-27T11:25:13.743Z,23.29
2022-08-27T11:27:41.374Z,22.87
2022-08-27T11:30:11.372Z,23.96
2022-08-27T11:32:46.398Z,25.02
2022-08-27T11:35:23.130Z,24.60
2022-08-27T11:38:17.497Z,25.45
2022-08-27T11:41:09.819Z,26.13
2022-08-27T11:43:37.860Z,25.30
2022-08-27T11:46:08.247Z,25.11
2022-08-27T11:48:40.856Z,24.35
2022-08-27T11:51:15.921Z,24.32
2022-08-27T11:54:01.923Z,24.49
2022-08-27T11:56:32.913Z,24.27
2022-08-27T11:59:10.480Z,24.05
2022-08-27T12:01:38.429Z,23.63
2022-08-27T12:04:21.747Z,23.57
2022-08-27T12:07:04.221Z,23.50
2022-08-27T12:09:53.700Z,23.33
2022-08-27T12:12:54.364Z,23.26
2022-08-27T12:15:50.599Z,23.29
2022-08-27T12:18:54.183Z,23.26
2022-08-27T12:21:23.806Z,23.32
2022-08-27T12:23:51.111Z,23.64
2022-08-27T12:26:26.502Z,23.89
2022-08-27T12:29:18.465Z,23.86
2022-08-27T12:31:48.782Z,23.90
2022-08-27T12:34:23.197Z,23.84
2022-08-27T12:36:52.621Z,23.64
2022-08-27T12:39:26.927Z,24.36
2022-08-27T12:41:55.854Z,24.45
2022-08-27T12:44:33.540Z,24.74
2022-08-27T12:47:05.550Z,24.94
2022-08-27T12:49:57.755Z,24.75
2022-08-27T12:52:58.909Z,25.01
2022-08-27T12:55:40.004Z,25.58
2022-08-27T12:58:34.813Z,25.46
2022-08-27T13:01:36.107Z,25.19
2022-08-27T13:04:18.818Z,25.68
2022-08-27T13:06:58.360Z,25.81
2022-08-27T13:09:37.919Z,26.05
2022-08-27T13:12:14.746Z,27.02
2022-08-27T13:14:41.805Z,26.58
2022-08-27T13:17:11.609Z,26.04
2022-08-27T13:19:59.371Z,25.34
2022-08-27T13:22:38.858Z,24.59
2022-08-27T13:25:18.963Z,24.08
2022-08-27T13:27:59.520Z,23.49
2022-08-27T13:30:35.710Z,23.61
2022-08-27T13:33:05.697Z,24.59
2022-08-27T13:35:32.868Z,25.67
2022-08-27T13:38:01.311Z,26.38
2022-08-27T13:40:34.670Z,26.97
2022-08-27T13:43:09.302Z,27.30
2022-08-27T13:45:38.751Z,27.65
2022-08-27T13:48:06.566Z,28.09
2022-08-27T13:50:36.186Z,28.19
2022-08-27T13:53:27.910Z,27.98
2022-08-27T13:55:56.618Z,27.08
2022-08-27T13:58:27.903Z,26.76
2022-08-27T14:00:56.068Z,26.23
2022-08-27T14:03:25.855Z,26.15
2022-08-27T14:05:53.325Z,25.84
2022-08-27T14:08:20.930Z,25.21
2022-08-27T14:11:02.078Z,25.46
2022-08-27T14:13:31.538Z,25.55
2022-08-27T14:16:00.207Z,25.38
2022-08-27T14:18:57.386Z,24.90
2022-08-27T14:21:19.968Z,24.53
2022-08-27T14:23:46.640Z,24.16
2022-08-27T14:26:13.986Z,23.80
2022-08-27T14:28:42.869Z,23.43
2022-08-27T14:31:09.793Z,23.42
2022-08-27T14:33:36.448Z,23.19
2022-08-27T14:36:03.630Z,23.20
2022-08-27T14:38:32.082Z,23.08
2022-08-27T14:40:58.833Z,23.06
2022-08-27T14:43:25.809Z,22.98
2022-08-27T14:45:54.024Z,22.87
2022-08-27T14:48:28.653Z,22.82
2022-08-27T14:50:56.832Z,22.79
2022-08-27T14:53:23.674Z,22.87
2022-08-27T14:55:52.161Z,22.91
2022-08-27T14:58:19.735Z,23.04
2022-08-27T15:00:46.561Z,23.19
2022-08-27T15:03:13.273Z,23.11
2022-08-27T15:05:40.041Z,23.15
2022-08-27T15:08:07.702Z,23.21
2022-08-27T15:10:39.811Z,23.12
2022-08-27T15:13:06.447Z,22.99
2022-08-27T15:15:33.113Z,23.08
2022-08-27T15:17:59.737Z,23.11
2022-08-27T15:20:26.326Z,22.89
2022-08-27T15:22:53.223Z,22.79
2022-08-27T15:25:21.015Z,22.82
2022-08-27T15:27:47.646Z,22.66
2022-08-27T15:30:15.973Z,22.55
2022-08-27T15:32:46.058Z,22.34
2022-08-27T15:35:15.657Z,22.23
2022-08-27T15:37:43.281Z,22.22
2022-08-27T15:40:11.808Z,22.17
2022-08-27T15:42:38.495Z,22.08
2022-08-27T15:45:06.906Z,22.00
2022-08-27T15:47:34.206Z,21.89
2022-08-27T15:50:00.814Z,21.82
2022-08-27T15:52:40.331Z,21.72
2022-08-27T15:55:16.611Z,21.62
2022-08-27T15:57:43.189Z,21.64
2022-08-27T16:00:10.789Z,21.68
2022-08-27T16:02:37.378Z,21.71
2022-08-27T16:05:04.156Z,21.65
2022-08-27T16:07:30.720Z,21.68
2022-08-27T16:09:57.389Z,21.61
2022-08-27T16:12:27.292Z,21.66
2022-08-27T16:14:55.201Z,21.68
2022-08-27T16:17:22.258Z,21.64
2022-08-27T16:19:49.462Z,21.63
2022-08-27T16:22:16.412Z,21.52
2022-08-27T16:24:43.160Z,21.53
2022-08-27T16:27:09.878Z,21.59
2022-08-27T16:29:36.714Z,21.51
2022-08-27T16:32:04.573Z,21.42
2022-08-27T16:34:32.671Z,21.21
2022-08-27T16:37:00.153Z,20.98
2022-08-27T16:39:31.789Z,20.84
2022-08-27T16:42:00.565Z,20.83
2022-08-27T16:44:27.277Z,20.71
2022-08-27T16:46:53.823Z,20.61
2022-08-27T16:49:38.663Z,20.63
2022-08-27T16:52:06.823Z,20.58
2022-08-27T16:54:34.054Z,20.58
2022-08-27T16:57:01.097Z,20.50
2022-08-27T16:59:27.710Z,20.46
2022-08-27T17:01:55.344Z,20.41
2022-08-27T17:04:29.701Z,20.38
2022-08-27T17:06:58.332Z,20.37
2022-08-27T17:09:25.158Z,20.34
2022-08-27T17:11:57.130Z,20.33
2022-08-27T17:14:24.159Z,20.23
2022-08-27T17:16:51.117Z,20.06
2022-08-27T17:19:18.849Z,20.01
2022-08-27T17:21:45.780Z,20.02
2022-08-27T17:24:12.984Z,20.04
2022-08-27T17:26:40.204Z,20.06
2022-08-27T17:29:06.828Z,20.04
2022-08-27T17:31:37.266Z,19.92
2022-08-27T17:34:05.758Z,19.97
2022-08-27T17:36:33.146Z,19.91
2022-08-27T17:39:00.505Z,19.88
2022-08-27T17:41:34.469Z,19.82
2022-08-27T17:44:12.079Z,19.75
2022-08-27T17:46:38.633Z,19.67
2022-08-27T17:49:05.272Z,19.68
2022-08-27T17:51:31.988Z,19.59
2022-08-27T17:54:01.138Z,19.53
2022-08-27T17:56:29.576Z,19.49
2022-08-27T17:58:56.534Z,19.50
2022-08-27T18:01:30.363Z,19.43
2022-08-27T18:03:58.346Z,19.44
2022-08-27T18:06:26.688Z,19.40
2022-08-27T18:08:53.488Z,19.41
2022-08-27T18:11:20.528Z,19.41
2022-08-27T18:13:54.004Z,19.38
2022-08-27T18:16:21.343Z,19.34
2022-08-27T18:18:48.299Z,19.32
2022-08-27T18:21:24.928Z,19.22
2022-08-27T18:23:51.959Z,19.21
2022-08-27T18:26:21.558Z,19.13
2022-08-27T18:28:49.238Z,19.07
2022-08-27T18:31:18.429Z,18.97
2022-08-27T18:33:45.125Z,18.87
2022-08-27T18:36:12.000Z,18.84
2022-08-27T18:38:38.605Z,18.75
2022-08-27T18:41:06.494Z,18.71
2022-08-27T18:43:35.354Z,18.69
2022-08-27T18:46:03.793Z,18.70
2022-08-27T18:48:30.472Z,18.68
2022-08-27T18:50:59.466Z,18.66
2022-08-27T18:53:28.899Z,18.68
2022-08-27T18:55:56.029Z,18.68
2022-08-27T18:58:22.801Z,18.68
2022-08-27T19:00:53.631Z,18.65
2022-08-27T19:03:26.905Z,18.64
2022-08-27T19:05:54.959Z,18.64
2022-08-27T19:08:23.052Z,18.60
2022-08-27T19:10:49.617Z,18.62
2022-08-27T19:13:16.274Z,18.60
2022-08-27T19:15:47.150Z,18.58
2022-08-27T19:18:13.707Z,18.54
2022-08-27T19:20:40.382Z,18.51
2022-08-27T19:23:06.920Z,18.48
2022-08-27T19:25:33.584Z,18.44
2022-08-27T19:28:00.406Z,18.41
2022-08-27T19:30:27.013Z,18.39
2022-08-27T19:32:54.708Z,18.38
2022-08-27T19:35:23.741Z,18.42
2022-08-27T19:37:53.490Z,18.44
2022-08-27T19:40:22.202Z,18.43
2022-08-27T19:42:49.572Z,18.42
2022-08-27T19:45:16.332Z,18.41
2022-08-27T19:47:50.768Z,18.42
2022-08-27T19:50:17.910Z,18.41
2022-08-27T19:52:44.772Z,18.36
2022-08-27T19:55:14.134Z,18.36
2022-08-27T19:57:42.949Z,18.37
2022-08-27T20:00:11.839Z,18.31
2022-08-27T20:02:38.475Z,18.26
2022-08-27T20:05:22.030Z,18.21
2022-08-27T20:07:51.099Z,18.17
2022-08-27T20:10:19.594Z,18.11
2022-08-27T20:12:48.432Z,18.07
2022-08-27T20:15:15.687Z,18.01
2022-08-27T20:17:42.782Z,17.98
2022-08-27T20:20:10.757Z,17.92
2022-08-27T20:22:39.700Z,17.96
2022-08-27T20:25:06.917Z,17.96
2022-08-27T20:27:33.648Z,17.96
2022-08-27T20:30:00.267Z,17.91
2022-08-27T20:32:29.961Z,17.82
2022-08-27T20:34:57.171Z,17.71
2022-08-27T20:37:24.398Z,17.63
2022-08-27T20:39:52.533Z,17.61
2022-08-27T20:42:20.038Z,17.60
2022-08-27T20:44:47.491Z,17.59
2022-08-27T20:47:15.466Z,17.54
2022-08-27T20:49:44.575Z,17.48
2022-08-27T20:52:12.929Z,17.54
2022-08-27T20:54:39.990Z,17.51
2022-08-27T20:57:08.175Z,17.45
2022-08-27T20:59:53.109Z,17.40
2022-08-27T21:02:25.711Z,17.34
2022-08-27T21:04:53.096Z,17.25
2022-08-27T21:07:21.412Z,17.16
2022-08-27T21:09:57.260Z,17.07
2022-08-27T21:12:28.096Z,16.90
2022-08-27T21:14:56.222Z,16.85
2022-08-27T21:17:26.158Z,16.78
2022-08-27T21:19:52.848Z,16.65
2022-08-27T21:22:20.026Z,16.53
2022-08-27T21:24:47.566Z,16.45
2022-08-27T21:27:15.096Z,16.36
2022-08-27T21:29:41.931Z,16.26
2022-08-27T21:32:09.667Z,16.18
2022-08-27T21:34:36.748Z,16.15
2022-08-27T21:37:04.427Z,16.11
2022-08-27T21:39:32.822Z,16.14
2022-08-27T21:42:00.947Z,16.00
2022-08-27T21:44:28.449Z,15.90
2022-08-27T21:46:55.432Z,15.77
2022-08-27T21:49:22.127Z,15.70
2022-08-27T21:51:48.929Z,15.62
2022-08-27T21:54:15.544Z,15.49
2022-08-27T21:56:42.997Z,15.34
2022-08-27T21:59:09.675Z,15.20
2022-08-27T22:01:36.807Z,15.13
2022-08-27T22:04:03.772Z,15.04
2022-08-27T22:06:30.903Z,14.93
2022-08-27T22:08:57.523Z,14.91
2022-08-27T22:11:25.748Z,14.79
2022-08-27T22:13:53.133Z,14.66
2022-08-27T22:16:19.883Z,14.59
2022-08-27T22:18:46.531Z,14.61
2022-08-27T22:21:13.537Z,14.52
2022-08-27T22:23:42.321Z,14.46
2022-08-27T22:26:12.084Z,14.40
2022-08-27T22:28:38.740Z,14.37
2022-08-27T22:31:07.374Z,14.35
2022-08-27T22:33:34.241Z,14.34
2022-08-27T22:36:00.876Z,14.31
2022-08-27T22:38:27.483Z,14.31
2022-08-27T22:40:54.075Z,14.25
2022-08-27T22:43:20.694Z,14.13
2022-08-27T22:45:47.313Z,14.12
2022-08-27T22:48:14.326Z,14.09
2022-08-27T22:50:41.167Z,14.02
2022-08-27T22:53:08.264Z,13.91
2022-08-27T22:55:35.606Z,13.89
2022-08-27T22:58:02.317Z,13.85
2022-08-27T23:00:32.790Z,13.76
2022-08-27T23:03:01.138Z,13.72
2022-08-27T23:05:32.396Z,13.62
2022-08-27T23:08:11.335Z,13.57
2022-08-27T23:10:38.694Z,13.50
2022-08-27T23:13:05.547Z,13.47
2022-08-27T23:15:32.504Z,13.41
2022-08-27T23:18:00.603Z,13.41
2022-08-27T23:20:27.785Z,13.37
2022-08-27T23:22:54.545Z,13.40
2022-08-27T23:25:43.236Z,13.39
2022-08-27T23:28:14.382Z,13.43
2022-08-27T23:30:42.931Z,13.43
2022-08-27T23:33:09.696Z,13.41
2022-08-27T23:35:36.844Z,13.39
2022-08-27T23:38:03.767Z,13.33
2022-08-27T23:40:30.589Z,13.27
2022-08-27T23:42:57.303Z,13.24
2022-08-27T23:45:26.257Z,13.23
2022-08-27T23:47:53.425Z,13.18
2022-08-27T23:50:23.094Z,13.10
2022-08-27T23:52:59.100Z,13.13
2022-08-27T23:55:25.714Z,13.07
2022-08-27T23:57:57.407Z,13.04
